N5CNB Weather Reports


Display with metric or nautical units.
time (UTC)temp
F
wind
direction
speed
MPH
gust
MPH
rain 1hr
in
rain 24hr
in
rain mn
in
humidity
%
barometer
mb
20210922084617 73 9 4.0 11.0 0.00 0.00 0.00 53 1021.1
20210922083159 73 30 5.0 12.0 0.00 0.00 0.00 53 1021.0
20210922081557 73 42 4.0 12.0 0.00 0.00 0.00 53 1020.8
20210922080151 74 34 5.0 11.0 0.00 0.00 0.00 52 1020.7
20210922074617 74 5 4.0 12.0 0.00 0.00 0.00 53 1020.6
20210922073114 75 355 5.0 10.0 0.00 0.00 0.00 52 1020.5
20210922071606 75 37 3.0 15.0 0.00 0.00 0.00 52 1020.3
20210922070045 76 5 5.0 11.0 0.00 0.00 0.00 53 1020.1
20210922064634 76 319 4.0 13.0 0.00 0.00 0.00 54 1020.1
20210922063128 77 35 5.0 12.0 0.00 0.00 0.00 53 1019.9
20210922061535 77 30 4.0 15.0 0.00 0.00 0.00 53 1019.7
20210922060041 78 311 6.0 16.0 0.00 0.00 0.00 53 1019.6
20210922054539 78 26 7.0 14.0 0.00 0.00 0.00 54 1019.5
20210922053057 79 48 5.0 16.0 0.00 0.00 0.00 54 1019.4
20210922051554 79 15 4.0 16.0 0.00 0.00 0.00 54 1019.5
20210922050022 80 318 4.0 14.0 0.00 0.00 0.00 54 1019.6
20210922044527 80 42 5.0 15.0 0.00 0.00 0.00 55 1019.6
20210922043011 80 344 8.0 14.0 0.00 0.00 0.00 56 1019.2
20210922041512 80 355 3.0 12.0 0.00 0.00 0.00 59 1019.2
20210922034526 81 5 4.0 13.0 0.00 0.00 0.00 62 1018.7
20210922033022 81 5 2.0 12.0 0.00 0.00 0.00 64 1018.6
20210922031511 81 338 4.0 12.0 0.00 0.00 0.00 65 1018.4
20210922030002 81 34 4.0 13.0 0.00 0.00 0.00 65 1018.3
20210922024642 82 61 4.0 12.0 0.00 0.00 0.00 65 1017.8
20210922023132 82 314 4.0 13.0 0.00 0.00 0.00 65 1017.6
20210922021613 82 9 4.0 12.0 0.00 0.00 0.00 65 1017.2
20210922020121 82 15 5.0 11.0 0.00 0.00 0.00 66 1017.1
20210922014619 82 29 4.0 11.0 0.00 0.00 0.00 67 1016.9
20210922013136 82 38 4.0 10.0 0.00 0.00 0.00 67 1016.7
20210922011659 83 340 2.0 8.0 0.00 0.00 0.00 67 1016.5
20210922010121 84 321 3.0 11.0 0.00 0.00 0.00 67 1016.4
20210922004727 84 302 5.0 12.0 0.00 0.00 0.00 66 1016.4
20210922003114 85 296 3.0 13.0 0.00 0.00 0.00 66 1016.1
20210922001731 86 28 5.0 21.0 0.00 0.00 0.00 65 1015.5
20210922000139 87 32 5.0 17.0 0.00 0.00 0.00 64 1015.3
20210921234603 91 19 8.0 17.0 0.00 0.00 0.00 56 1014.9
20210921233204 93 325 0.0 4.0 0.00 0.00 0.00 51 1014.6
20210921231659 94 307 3.0 5.0 0.00 0.00 0.00 49 1014.4
20210921230117 94 294 2.0 7.0 0.00 0.00 0.00 48 1014.3
20210921224625 95 276 5.0 8.0 0.00 0.00 0.00 47 1014.2
20210921223109 95 248 1.0 5.0 0.00 0.00 0.00 48 1014.2
20210921221658 95 230 5.0 10.0 0.00 0.00 0.00 47 1014.1
20210921220244 95 309 2.0 8.0 0.00 0.00 0.00 49 1014.1
20210921214625 95 11 0.0 8.0 0.00 0.00 0.00 47 1014.3
20210921213056 95 316 1.0 5.0 0.00 0.00 0.00 48 1014.2
20210921211553 95 300 3.0 9.0 0.00 0.00 0.00 48 1014.3
20210921210118 95 5 2.0 11.0 0.00 0.00 0.00 49 1014.5
20210921204626 96 223 2.0 9.0 0.00 0.00 0.00 47 1014.5
20210921203118 96 31 2.0 6.0 0.00 0.00 0.00 46 1014.5
20210921201702 97 178 1.0 10.0 0.00 0.00 0.00 44 1014.9
20210921200107 97 316 4.0 8.0 0.00 0.00 0.00 42 1015.2
20210921194633 96 336 3.0 5.0 0.00 0.00 0.00 46 1015.4
20210921193113 95 288 4.0 11.0 0.00 0.00 0.00 47 1015.6
20210921191621 95 258 6.0 9.0 0.00 0.00 0.00 51 1015.5
20210921190052 94 77 1.0 4.0 0.00 0.00 0.00 53 1015.9
20210921184629 95 300 3.0 5.0 0.00 0.00 0.00 51 1016.2
20210921183052 95 88 1.0 6.0 0.00 0.00 0.00 51 1016.3
20210921181552 94 5 1.0 5.0 0.00 0.00 0.00 53 1016.5
20210921180110 92 250 1.0 11.0 0.00 0.00 0.00 57 1016.6
20210921174553 91 200 5.0 9.0 0.00 0.00 0.00 62 1016.5
20210921173032 92 180 1.0 10.0 0.00 0.00 0.00 61 1016.6
20210921171517 91 9 1.0 10.0 0.00 0.00 0.00 64 1016.7
20210921170027 90 88 1.0 9.0 0.00 0.00 0.00 63 1016.7
20210921164541 90 181 3.0 9.0 0.00 0.00 0.00 63 1016.4
20210921163017 88 180 4.0 10.0 0.00 0.00 0.00 64 1016.5
20210921161511 88 134 3.0 9.0 0.00 0.00 0.00 69 1016.7
20210921160005 87 206 3.0 9.0 0.00 0.00 0.00 71 1016.8
20210921154520 86 232 4.0 10.0 0.00 0.00 0.00 75 1016.6
20210921153127 86 197 6.0 10.0 0.00 0.00 0.00 78 1016.4
20210921151611 83 242 3.0 8.0 0.00 0.00 0.00 85 1016.3
20210921150124 83 174 4.0 10.0 0.00 0.00 0.00 85 1016.2
20210921144643 82 184 4.0 8.0 0.00 0.00 0.00 89 1016.0
20210921143116 81 196 2.0 12.0 0.00 0.00 0.00 91 1015.8
20210921141613 79 215 3.0 7.0 0.00 0.00 0.00 98 1015.6
20210921140122 78 158 4.0 7.0 0.00 0.00 0.00 98 1015.5
20210921134635 78 194 2.0 4.0 0.00 0.00 0.00 99 1015.2
20210921133126 78 174 1.0 7.0 0.00 0.00 0.00 99 1014.9
20210921131543 78 203 0.0 5.0 0.00 0.00 0.00 99 1014.6
20210921130036 78 196 1.0 5.0 0.00 0.00 0.00 99 1014.5
20210921124551 78 195 1.0 4.0 0.00 0.00 0.00 99 1014.2
20210921123046 78 200 1.0 3.0 0.00 0.00 0.00 99 1014.1
20210921121533 78 207 2.0 4.0 0.00 0.00 0.00 99 1014.0
20210921120103 77 188 2.0 5.0 0.00 0.00 0.00 99 1013.6
20210921114537 77 196 3.0 5.0 0.00 0.00 0.00 99 1013.4
20210921113032 78 195 1.0 6.0 0.00 0.00 0.00 99 1013.2
20210921111524 78 175 1.0 5.0 0.00 0.00 0.00 99 1013.1
20210921110024 78 193 2.0 5.0 0.00 0.00 0.00 98 1012.9
20210921104615 78 180 1.0 4.0 0.00 0.00 0.00 98 1012.7
20210921103020 78 184 1.0 4.0 0.00 0.00 0.00 98 1012.6
20210921101519 77 188 0.0 2.0 0.00 0.00 0.00 98 1012.5
20210921100013 77 184 1.0 4.0 0.00 0.00 0.00 98 1012.2
20210921094546 77 186 0.0 3.0 0.00 0.00 0.00 98 1011.9
20210921093047 77 192 0.0 3.0 0.00 0.00 0.00 98 1011.9
20210921091540 77 192 1.0 4.0 0.00 0.00 0.00 98 1011.8
20210921090012 77 192 2.0 5.0 0.00 0.00 0.00 98 1011.8